Ora Direzione Vento Velocita' Vento Media Vento Raffica Max. Temperatura Wind Chill Pioggia Pressione
04:02:22.076 °(ENE)7.8 Kts6.1 Kts10.4 Kts9.5 °C6.5 °C1.2 mm1007.0 Hpa
03:42:13.073 °(ENE)5.2 Kts4.3 Kts7.8 Kts9.7 °C8.4 °C1.2 mm1007.4 Hpa
03:22:09.071 °(ENE)1.7 Kts2.6 Kts6.1 Kts9.8 °C9.8 °C0.8 mm1007.8 Hpa
03:02:01.077 °(ENE)3.5 Kts4.3 Kts5.2 Kts9.8 °C8.5 °C0.0 mm1008.0 Hpa
02:42:01.078 °(ENE)4.3 Kts4.3 Kts5.2 Kts9.9 °C8.7 °C0.0 mm1008.5 Hpa
02:21:56.076 °(ENE)0.9 Kts3.5 Kts21.7 Kts9.9 °C9.9 °C0.2 mm1008.8 Hpa
02:01:51.053 °(NE)3.5 Kts2.6 Kts21.7 Kts9.9 °C9.9 °C0.2 mm1009.0 Hpa
01:41:50.076 °(ENE)3.5 Kts1.7 Kts21.7 Kts10.1 °C10.1 °C0.2 mm1009.0 Hpa
01:21:43.076 °(ENE)2.6 Kts3.5 Kts21.7 Kts9.9 °C9.9 °C0.2 mm1009.0 Hpa
01:00:52.076 °(ENE)6.1 Kts5.2 Kts21.7 Kts9.7 °C7.6 °C0.2 mm1009.2 Hpa
00:40:52.078 °(ENE)4.3 Kts5.2 Kts21.7 Kts9.6 °C7.4 °C0.2 mm1009.5 Hpa
00:20:49.069 °(ENE)4.3 Kts4.3 Kts21.7 Kts9.5 °C8.2 °C0.2 mm1009.7 Hpa
00:00:54.077 °(ENE)5.2 Kts5.2 Kts21.7 Kts9.7 °C7.6 °C0.2 mm1009.9 Hpa
23:40:47.077 °(ENE)5.2 Kts5.2 Kts21.7 Kts9.8 °C7.6 °C0.2 mm1010.2 Hpa
23:20:47.076 °(ENE)5.2 Kts5.2 Kts21.7 Kts9.9 °C7.8 °C0.2 mm1010.2 Hpa
23:00:54.074 °(ENE)3.5 Kts4.3 Kts21.7 Kts10.1 °C8.9 °C0.2 mm1010.3 Hpa
22:40:53.040 °(NE)3.5 Kts2.6 Kts21.7 Kts11.1 °C11.1 °C0.2 mm1010.7 Hpa
22:20:47.0284 °(WNW)7.8 Kts10.4 Kts21.7 Kts12.8 °C7.1 °C0.2 mm1011.0 Hpa
22:00:46.0265 °(W)11.3 Kts13.0 Kts21.7 Kts12.7 °C5.8 °C0.2 mm1011.2 Hpa
21:40:42.0261 °(W)13.0 Kts15.6 Kts21.7 Kts12.8 °C4.8 °C0.2 mm1011.2 Hpa